Impacts METAR Board
IDs:

KDTW - Detroit Metro/Wayne, MI, US

Updated at: 0400 UTC 22 Apr 2018
Potential Impact None Slight Moderate High
Time 21/16Z 21/17Z 21/18Z 21/19Z 21/20Z 21/21Z 21/22Z 21/23Z 22/00Z 22/01Z 22/02Z 22/03Z 22/04Z
Temp50 51 53 54 56 56 56 53 50 46 44 43 42
Dewpt25 24 24 22 24 25 26 24 27 23 23 22 22
Altim30.49 30.47 30.46 30.43 30.42 30.41 30.41 30.41 30.41 30.41 30.42 30.42 30.41
VIS10 10 10 10 10 10 10 10 10 10 10 10 10
CIG160 150 150 140 200 200 200 200 200 250 240 230 230
CoverOVCOVCOVCOVCOVCOVCOVCOVCOVCOVCBKNBKNBKN
FltCatVFRVFRVFRVFRVFRVFRVFRVFRVFRVFRVFRVFRVFR
WX--------------------------
WDir150170024015020017015016016017000
WSpd3 4 4 3 4 3 5 6 7 5 5 0 0
WGst-- -- -- -- -- -- -- -- -- -- -- -- --
Raw hourly METARs
KDTW 211553Z 15003KT 10SM BKN160 OVC200 10/M04 A3049 RMK AO2 SLP328 T01001039
KDTW 211653Z 17004KT 10SM BKN150 OVC200 11/M04 A3047 RMK AO2 SLP323 T01061044
KDTW 211753Z VRB04KT 10SM BKN150 OVC200 12/M04 A3046 RMK AO2 SLP320 T01171044 10117 20033 58008
KDTW 211853Z 24003KT 10SM BKN140 OVC200 12/M06 A3043 RMK AO2 SLP309 T01221056
KDTW 211953Z 15004KT 10SM FEW140 OVC200 13/M04 A3042 RMK AO2 SLP306 T01331044
KDTW 212053Z 20003KT 10SM SCT140 OVC200 13/M04 A3041 RMK AO2 SLP302 T01331039 56018
KDTW 212153Z 17005KT 10SM FEW140 OVC200 13/M03 A3041 RMK AO2 SLP303 T01331033
KDTW 212253Z 15006KT 10SM SCT140 OVC200 12/M04 A3041 RMK AO2 SLP301 T01171044
KDTW 212353Z 16007KT 10SM SCT150 OVC200 10/M03 A3041 RMK AO2 SLP300 T01001028 10139 20100 58001
KDTW 220053Z 16005KT 10SM SCT150 OVC250 08/M05 A3041 RMK AO2 SLP301 T00781050
KDTW 220153Z 17005KT 10SM SCT160 BKN240 07/M05 A3042 RMK AO2 SLP304 T00671050
KDTW 220253Z 00000KT 10SM FEW160 BKN230 06/M06 A3042 RMK AO2 SLP304 T00611056 51003
KDTW 220353Z 00000KT 10SM FEW160 BKN230 06/M06 A3041 RMK AO2 SLP301 T00561056



Page loaded:  04:44 UTC  |   09:44 PM Pacific  |   10:44 PM Mountain  |   11:44 PM Central  |   12:44 AM Eastern

 

ADVISORIES

FORECASTS

FORECASTS

OBSERVATIONS

USER TOOLS

ABOUT US